• Join FlightAware (Why Join?)
  • Login
  • US Flag 
04:46PM EST


 

Airport Tracker/Info


-or-


 

Live Flight TrackerFlight Track Log ✈ N234CE ✈ 04-Nov-2013 ✈ PAGA / GAL - PAFA / FAI

Flight Track Log - Related Links

Times and Time Zones

All times are in EST time to prevent confusion due to time zone crossing. See the N234CE flight status page for this flight to view local times or setup timezone preferences in your user account.

Time Position Orientation Groundspeed Altitude Reporting Facility
EST Latitude Longitude Course Direction KTS MPH feet Rate Location/Type
08:06PM 64.7500 -156.4500 60° Northeast 150 173 7,000  Level Anchorage Center
08:07PM 64.7500 -156.3500 90° East 160 184 8,000 960 Climbing Anchorage Center
08:08PM 64.7500 -156.2500 90° East 160 184 9,000 480 Climbing Anchorage Center
08:09PM 64.7640 -156.0107 86° East  Level FlightAware Approximate
08:09PM 64.7500 -156.1500 90° East 150 173 9,000  Level Anchorage Center
08:10PM 64.7667 -155.9076 86° East  Level FlightAware Approximate
08:10PM 64.7667 -156.0333 71° East 160 184 9,000  Level Anchorage Center
08:11PM 64.7694 -155.8045 86° East  Level FlightAware Approximate
08:11PM 64.7500 -155.9167 108° East 170 196 9,000  Level Anchorage Center
08:12PM 64.7667 -155.8000 71° East 180 207 9,000  Level Anchorage Center
08:13PM 64.7667 -155.6833 90° East 190 219 9,000  Level Anchorage Center
08:14PM 64.7667 -155.5667 90° East 180 207 9,000  Level Anchorage Center
08:15PM 64.7667 -155.4333 90° East 180 207 9,000  Level Anchorage Center
08:16PM 64.7833 -155.3167 71° East 180 207 9,000  Level Anchorage Center
08:17PM 64.7833 -155.2000 90° East 170 196 9,000  Level Anchorage Center
08:18PM 64.7833 -155.0833 90° East 190 219 9,000  Level Anchorage Center
08:19PM 64.7833 -154.9833 90° East 180 207 9,000  Level Anchorage Center
08:20PM 64.7833 -154.8500 90° East 180 207 9,000  Level Anchorage Center
08:21PM 64.8000 -154.7333 71° East 180 207 9,000  Level Anchorage Center
08:22PM 64.8000 -154.6167 90° East 170 196 9,000  Level Anchorage Center
08:23PM 64.8000 -154.5167 90° East 170 196 9,000 120 Level Anchorage Center
08:24PM 64.8000 -154.3833 90° East 190 219 9,300 120 Climbing Anchorage Center
08:25PM 64.8000 -154.2667 90° East 180 207 9,300  Level Anchorage Center
08:26PM 64.8000 -154.1500 90° East 180 207 9,300  Level Anchorage Center
08:27PM 64.8000 -154.0333 90° East 190 219 9,300  Level Anchorage Center
08:28PM 64.8167 -153.9167 71° East 180 207 9,300  Level Anchorage Center
08:29PM 64.8167 -153.7833 90° East 190 219 9,300 -180 Level Anchorage Center
08:30PM 64.8167 -153.6667 90° East 190 219 9,000 -180 Descending Anchorage Center
08:31PM 64.8167 -153.5500 90° East 190 219 9,000  Level Anchorage Center
08:32PM 64.8167 -153.4333 90° East 180 207 9,000  Level Anchorage Center
08:33PM 64.8167 -153.3000 90° East 190 219 9,000  Level Anchorage Center
08:34PM 64.8167 -153.1833 90° East 180 207 9,000  Level Anchorage Center
08:35PM 64.8333 -153.0667 71° East 190 219 9,000  Level Anchorage Center
08:36PM 64.8333 -152.9500 90° East 180 207 9,000  Level Anchorage Center
08:37PM 64.8333 -152.8333 90° East 180 207 9,000  Level Anchorage Center
08:38PM 64.8333 -152.7167 90° East 180 207 9,000  Level Anchorage Center
08:39PM 64.8333 -152.5833 90° East 190 219 9,000  Level Anchorage Center
08:40PM 64.8333 -152.4667 90° East 190 219 9,000  Level Anchorage Center
08:41PM 64.8333 -152.3500 90° East 190 219 9,000  Level Anchorage Center
08:42PM 64.8333 -152.2333 90° East 190 219 9,000  Level Anchorage Center
08:43PM 64.8333 -152.1000 90° East 180 207 9,000  Level Anchorage Center
08:44PM 64.8333 -151.9833 90° East 170 196 9,000  Level Anchorage Center
08:45PM 64.8333 -151.8667 90° East 170 196 9,000  Level Anchorage Center
08:46PM 64.8500 -151.7500 71° East 190 219 9,000 60 Level Anchorage Center
08:47PM 64.8500 -151.6333 90° East 190 219 9,200 -300 Climbing Anchorage Center
08:48PM 64.8333 -151.5000 106° East 200 230 8,500 -600 Descending Anchorage Center
08:49PM 64.8333 -151.3667 90° East 200 230 8,100 -420 Descending Anchorage Center
08:50PM 64.8333 -151.2500 90° East 190 219 7,700 -360 Descending Anchorage Center
08:51PM 64.8500 -151.1333 71° East 190 219 7,400 -300 Descending Anchorage Center
08:52PM 64.8333 -151.0000 106° East 180 207 7,100 -120 Descending Anchorage Center
08:53PM 64.8500 -150.8833 71° East 180 207 7,200  Climbing Anchorage Center
08:54PM 64.8333 -150.7833 111° Southeast 160 184 7,200  Level Anchorage Center
08:55PM 64.8333 -150.6667 90° East 180 207 7,200  Level Anchorage Center
08:56PM 64.8333 -150.5500 90° East 170 196 7,200  Level Anchorage Center
08:57PM 64.8333 -150.4333 90° East 170 196 7,200  Level Anchorage Center
08:58PM 64.8333 -150.3167 90° East 180 207 7,200  Level Anchorage Center
08:59PM 64.8333 -150.2167 90° East 170 196 7,200  Level Anchorage Center
09:00PM 64.8333 -150.1000 90° East 170 196 7,200 -60 Level Anchorage Center
09:01PM 64.8333 -149.9833 90° East 170 196 7,100 -180 Descending Anchorage Center
09:02PM 64.8333 -149.8667 90° East 180 207 6,900 -300 Descending Anchorage Center
09:03PM 64.8333 -149.7500 90° East 170 196 6,600 -300 Descending Anchorage Center
09:04PM 64.8333 -149.6500 90° East 180 207 6,300 -300 Descending Anchorage Center